AirNav   Bose ProFlight Series 2 Headset
 
 1112 users online  

2FL7 Porta Target Heliport
Palm Bay, Florida, USA

GOING TO PALM BAY?


FAA INFORMATION EFFECTIVE 02 JANUARY 2020

Location

FAA Identifier: 2FL7
Lat/Long: 27-55-27.0800N 080-36-49.2000W
27-55.451333N 080-36.820000W
27.9241889,-80.6136667
(estimated)
Elevation: 28 ft. / 9 m (estimated)
Variation: 04W (1995)
From city: 9 miles E of PALM BAY, FL
Time zone: UTC -5 (UTC -4 during Daylight Saving Time)
Zip code: 32909

Heliport Operations

Heliport use: Private use. Permission required prior to landing
Activation date: 03/1999
Control tower: no
ARTCC: JACKSONVILLE CENTER
FSS: SAINT PETERSBURG FLIGHT SERVICE STATION
Attendance: CONTINUOUS
Wind indicator: yes
Segmented circle: no
Lights: SS-SR

Heliport Communications

WX AWOS-3 at X59 (4 nm NE): 122.725
WX AWOS-3PT at X26 (9 nm SE): 118.125 (772-388-5689)
WX ASOS at MLB (11 nm N): PHONE 321-951-7575
WX ASOS at VRB (19 nm SE): PHONE 772-978-9535

Nearby radio navigation aids

VOR radial/distance  VOR name  Freq  Var
MLBr181/10.9MELBOURNE VOR/DME110.0007W
TRVr343/16.1TREASURE VORTAC117.3007W

 
NDB name  Hdg/Dist  Freq  Var  ID
FORT PIERCE341/29.227507WFPR ..-. .--. .-.

Heliport Services

Runway Information

Helipad H1

Dimensions: 330 x 150 ft. / 101 x 46 m
FINAL APCH & TKOF AREA MEASURES 660 FT BY 330 FT.
Surface: concrete
Runway edge lights: FLD
Traffic pattern: leftleft

Heliport Ownership and Management from official FAA records

Ownership: Privately-owned
Owner: PAUL SCHOLEM
515 GRANT ROAD
PALM BAY, FL 32909
Phone 407-725-9911
Manager: PAUL SCHOLEM
515 GRANT ROAD
PALM BAY, FL 32909
Phone 407-725-9911

Heliport Operational Statistics

Aircraft based on the field: 1
Helicopters: 1
    

Additional Remarks

16 FT BLDG 75 FT NORTH OF HELIPAD.
FOR CD CTC ORLANDO APCH AT 407-852-7553.

Instrument Procedures

There are no published instrument procedures at 2FL7.

Some nearby airports with instrument procedures:

X26 - Sebastian Municipal Airport (9 nm SE)
KMLB - Melbourne International Airport (11 nm N)
KCOF - Patrick Air Force Base (19 nm N)
KVRB - Vero Beach Regional Airport (19 nm SE)
KCOI - Merritt Island Airport (25 nm N)
 
Loc | Ops | Rwys | IFR | FBO | Links
Com | Nav | Svcs | Stats | Notes


 
Area around 2FL7 (Porta Target Heliport)
 
Road maps at: MapQuest Bing Google
 
Aerial photo
No photo
 
Sectional chart

 
Airport distance calculator
Flying to Porta Target Heliport? Find the distance to fly.

From to 2FL7

Sunrise and sunset
Times for 21-Jan-2020
 Local
(UTC-5)
 Zulu
(UTC)
Morning civil twilight06:5011:50
Sunrise07:1512:15
Sunset17:5322:53
Evening civil twilight18:1823:18

Current date and time
Zulu (UTC)  22-Jan-2020 02:29:00
Local (UTC-5)  21-Jan-2020 21:29:00
 
METAR
KMLB 
11nm N 
220153Z 32016G23KT 10SM FEW037 06/M01 A3017 RMK AO2 PK WND 32027/0142 SLP216 T00561011 $
KCOF 
18nm N 
220156Z 31017G24KT 10SM SCT037 07/01 A3018 RMK AO2A PK WND 32029/0058 SLPNO T00730007 RVRNO $
KVRB 
19nm SE 
212353Z 34019G25KT 10SM CLR 09/01 A3015
TAF
KMLB 
11nm N 
211742Z 2118/2218 33018G27KT P6SM SCT035 FM220000 34015G24KT P6SM SCT030 FM221500 36017G26KT P6SM BKN035
KCOF 
18nm N 
212304Z 2123/2301 33020G25KT 9999 FEW030 QNH3009INS BECMG 2214/2215 02018G25KT 8000 -SHRA SCT010 OVC020 520002 QNH3006INS BECMG 2220/2221 02012G18KT 9999 NSW BKN030 QNH3002INS TX13/2123Z TN07/2210Z
KVRB 
19nm SE 
211742Z 2118/2218 33017G26KT P6SM SCT035 FM220000 33015G24KT P6SM SCT030 FM221500 36017G26KT P6SM BKN035 AMD NOT SKED
NOTAMs
Click for the latest NOTAMs
NOTAMs are issued by the DoD/FAA and will open in a separate window not controlled by AirNav.

 

 
 

Would you like to see your business listed on this page?

 If your business provides an interesting product or service to pilots, flight crews, aircraft, or users of the Porta Target Heliport, you should consider listing it here.  To start the listing process, click on the button below
 
Add a business
 

Other Pages about Porta Target Heliport

Update a link
 
Copyright © AirNav, LLC. All rights reserved. Privacy Policy  Contact